Time;durP1;ratioP1;P1;durP2;ratioP2;P2;SDS_P1;SDS_P2;PMS_P1;PMS_P2;Temp;Humidity;BMP_temperature;BMP_pressure;BME280_temperature;BME280_humidity;BME280_pressure;Samples;Min_cycle;Max_cycle;Signal;HPM_P1;HPM_P2
2022/01/08 00:04:12;;;;;;;42.2;55.1;;;;;;;-6.5;67.8;98780;;;;
2022/01/08 00:15:12;;;;;;;42.2;55.1;;;;;;;-6.5;67.9;98770;;;;
2022/01/08 00:25:12;;;;;;;42.2;55.1;;;;;;;-6.7;68.5;98750;;;;
2022/01/08 00:35:12;;;;;;;37.8;48;;;;;;;-6.7;68.4;98740;;;;
2022/01/08 00:45:12;;;;;;;37.8;48;;;;;;;-6.7;67.2;98740;;;;
2022/01/08 00:56:14;;;;;;;37.8;48;;;;;;;-6.7;66.4;98720;;;;
2022/01/08 01:07:12;;;;;;;28.4;40.1;;;;;;;-6.6;66.1;98710;;;;
2022/01/08 01:17:12;;;;;;;28.4;40.1;;;;;;;-6.7;66.6;98710;;;;
2022/01/08 01:27:43;;;;;;;28.4;40.1;;;;;;;-6.9;67;98690;;;;
2022/01/08 01:48:12;;;;;;;20.9;28.1;;;;;;;-6.4;65.8;98680;;;;
2022/01/08 01:58:12;;;;;;;20.9;28.1;;;;;;;-6.8;67.5;98680;;;;
2022/01/08 02:09:12;;;;;;;23.1;31;;;;;;;-7.1;68.2;98670;;;;
2022/01/08 02:19:12;;;;;;;23.1;31;;;;;;;-7.1;68;98640;;;;
2022/01/08 02:29:12;;;;;;;23.1;31;;;;;;;-7.1;67.5;98630;;;;
2022/01/08 02:39:12;;;;;;;26.4;31.6;;;;;;;-7.3;69.4;98640;;;;
2022/01/08 02:50:12;;;;;;;26.4;31.6;;;;;;;-7.2;68.7;98620;;;;
2022/01/08 03:00:12;;;;;;;26.4;31.6;;;;;;;-6.9;67.6;98640;;;;
2022/01/08 03:10:12;;;;;;;34.9;41.8;;;;;;;-7.5;70.2;98620;;;;
2022/01/08 03:21:14;;;;;;;34.9;41.8;;;;;;;-7.6;70.4;98620;;;;
2022/01/08 03:31:12;;;;;;;34.9;41.8;;;;;;;-7.5;70;98600;;;;
2022/01/08 03:41:12;;;;;;;37.6;49.9;;;;;;;-7.4;69.4;98580;;;;
2022/01/08 03:52:12;;;;;;;37.6;49.9;;;;;;;-7.2;68.7;98580;;;;
2022/01/08 04:02:12;;;;;;;26.1;36;;;;;;;-7.6;69.7;98570;;;;
2022/01/08 04:12:16;;;;;;;26.1;36;;;;;;;-7.5;69.3;98560;;;;
2022/01/08 04:22:13;;;;;;;26.1;36;;;;;;;-7.4;69.5;98570;;;;
2022/01/08 04:33:12;;;;;;;20.5;26.2;;;;;;;-7.6;69.7;98560;;;;
2022/01/08 04:43:12;;;;;;;20.5;26.2;;;;;;;-7.6;69.6;98560;;;;
2022/01/08 04:54:12;;;;;;;20.5;26.2;;;;;;;-7.5;69.2;98560;;;;
2022/01/08 05:05:12;;;;;;;16.2;23.1;;;;;;;-7.8;70.5;98560;;;;
2022/01/08 05:15:12;;;;;;;16.2;23.1;;;;;;;-7.7;69.8;98550;;;;
2022/01/08 05:25:12;;;;;;;16.2;23.1;;;;;;;-7.6;68.5;98550;;;;
2022/01/08 05:36:12;;;;;;;14.6;25.9;;;;;;;-7.6;68.3;98560;;;;
2022/01/08 05:47:13;;;;;;;14.6;25.9;;;;;;;-7.4;67.6;98550;;;;
2022/01/08 05:58:12;;;;;;;14.6;25.9;;;;;;;-7.3;67.4;98550;;;;
2022/01/08 06:08:12;;;;;;;11.5;16.7;;;;;;;-7.1;67.5;98570;;;;
2022/01/08 06:18:13;;;;;;;11.5;16.7;;;;;;;-7.4;68.1;98560;;;;
2022/01/08 06:29:12;;;;;;;11.5;16.7;;;;;;;-7.6;69;98550;;;;
2022/01/08 06:39:12;;;;;;;20.6;27.7;;;;;;;-7.6;70;98550;;;;
2022/01/08 06:50:12;;;;;;;20.6;27.7;;;;;;;-7.5;70.3;98540;;;;
2022/01/08 07:01:12;;;;;;;28.2;37.8;;;;;;;-7.3;69.7;98550;;;;
2022/01/08 07:12:12;;;;;;;28.2;37.8;;;;;;;-6.9;69;98550;;;;
2022/01/08 07:22:12;;;;;;;28.2;37.8;;;;;;;-6.6;69.5;98550;;;;
2022/01/08 07:32:12;;;;;;;25.1;34.9;;;;;;;-6;69;98550;;;;
2022/01/08 07:43:12;;;;;;;25.1;34.9;;;;;;;-5.5;68.9;98530;;;;
2022/01/08 07:54:12;;;;;;;25.1;34.9;;;;;;;-5;67.9;98520;;;;
2022/01/08 08:02:53;;;;;;;73.2;87.1;;;;;;;-4.6;67.3;98520;;;;
2022/01/08 08:12:53;;;;;;;73.2;87.1;;;;;;;-4.2;66.5;98520;;;;
2022/01/08 08:22:54;;;;;;;73.2;87.1;;;;;;;-3.8;66.2;98520;;;;
2022/01/08 08:33:53;;;;;;;76.7;89.2;;;;;;;-3.5;65.8;98520;;;;
2022/01/08 08:44:53;;;;;;;76.7;89.2;;;;;;;-3.4;64.7;98510;;;;
2022/01/08 08:54:53;;;;;;;76.7;89.2;;;;;;;-2.9;65.4;98510;;;;
2022/01/08 09:05:53;;;;;;;71.2;81.3;;;;;;;-2.1;65.2;98510;;;;
2022/01/08 09:15:53;;;;;;;71.2;81.3;;;;;;;-1.7;65.3;98520;;;;
2022/01/08 09:25:53;;;;;;;71.2;81.3;;;;;;;-1;66.1;98490;;;;
2022/01/08 09:35:53;;;;;;;77.3;94.5;;;;;;;-0.6;63.9;98490;;;;
2022/01/08 09:46:53;;;;;;;77.3;94.5;;;;;;;-0.4;63.6;98490;;;;
2022/01/08 09:57:53;;;;;;;77.3;94.5;;;;;;;-0.1;63.9;98480;;;;
2022/01/08 10:07:53;;;;;;;47;58.6;;;;;;;0.1;55.3;98480;;;;
2022/01/08 10:17:53;;;;;;;47;58.6;;;;;;;0.4;54.7;98480;;;;
2022/01/08 10:27:53;;;;;;;47;58.6;;;;;;;0.6;54;98470;;;;
2022/01/08 10:37:53;;;;;;;11.6;15;;;;;;;0.9;53.7;98460;;;;
2022/01/08 10:47:53;;;;;;;11.6;15;;;;;;;1.3;51.7;98460;;;;
2022/01/08 10:58:55;;;;;;;11.6;15;;;;;;;1.4;52.7;98460;;;;
2022/01/08 11:08:53;;;;;;;23.6;28;;;;;;;1.8;52.6;98450;;;;
2022/01/08 11:19:53;;;;;;;23.6;28;;;;;;;2.2;51.4;98430;;;;
2022/01/08 11:29:53;;;;;;;23.6;28;;;;;;;2.8;52.5;98430;;;;
2022/01/08 11:39:53;;;;;;;20.5;26.8;;;;;;;2.8;51.5;98430;;;;
2022/01/08 11:50:53;;;;;;;20.5;26.8;;;;;;;3.1;51.7;98420;;;;
2022/01/08 12:00:53;;;;;;;25.2;33.8;;;;;;;2.9;50.4;98420;;;;
2022/01/08 12:11:54;;;;;;;25.2;33.8;;;;;;;3;51;98420;;;;
2022/01/08 12:22:53;;;;;;;25.2;33.8;;;;;;;2.8;51.8;98410;;;;
2022/01/08 12:32:55;;;;;;;27.4;33.5;;;;;;;2.7;53.3;98400;;;;
2022/01/08 12:43:53;;;;;;;27.4;33.5;;;;;;;2.6;53.6;98390;;;;
2022/01/08 12:54:53;;;;;;;27.4;33.5;;;;;;;2.4;53;98380;;;;
2022/01/08 13:05:53;;;;;;;27.3;33.9;;;;;;;2.4;53.1;98400;;;;
2022/01/08 13:15:53;;;;;;;27.3;33.9;;;;;;;1.9;54.7;98390;;;;
2022/01/08 13:26:53;;;;;;;27.3;33.9;;;;;;;1.8;54.9;98380;;;;
2022/01/08 13:36:53;;;;;;;27.1;34.1;;;;;;;1.9;55.3;98380;;;;
2022/01/08 13:47:54;;;;;;;27.1;34.1;;;;;;;1.7;54.7;98380;;;;
2022/01/08 13:57:54;;;;;;;27.1;34.1;;;;;;;1.5;55.9;98380;;;;
2022/01/08 14:08:55;;;;;;;33.9;40.8;;;;;;;1.5;55.8;98370;;;;
2022/01/08 14:19:53;;;;;;;33.9;40.8;;;;;;;1.4;56.4;98370;;;;
2022/01/08 14:30:53;;;;;;;45.5;56.8;;;;;;;1.3;57.6;98360;;;;
2022/01/08 14:40:53;;;;;;;45.5;56.8;;;;;;;1.2;57.5;98360;;;;
2022/01/08 14:51:53;;;;;;;45.5;56.8;;;;;;;1.2;58.2;98350;;;;
2022/01/08 15:02:53;;;;;;;44.8;56.8;;;;;;;1;58.6;98340;;;;
2022/01/08 15:12:53;;;;;;;44.8;56.8;;;;;;;0.9;59.7;98330;;;;
2022/01/08 15:23:54;;;;;;;44.8;56.8;;;;;;;0.7;60.4;98320;;;;
2022/01/08 15:34:53;;;;;;;56.9;67.4;;;;;;;0.7;60.3;98320;;;;
2022/01/08 15:45:53;;;;;;;56.9;67.4;;;;;;;0.7;60;98320;;;;
2022/01/08 15:55:53;;;;;;;56.9;67.4;;;;;;;0.6;60.6;98310;;;;
2022/01/08 16:06:53;;;;;;;34.6;39.9;;;;;;;0.6;61.5;98300;;;;
2022/01/08 16:17:53;;;;;;;34.6;39.9;;;;;;;0.5;61.8;98290;;;;
2022/01/08 16:27:53;;;;;;;34.6;39.9;;;;;;;0.5;62.1;98280;;;;
2022/01/08 16:38:55;;;;;;;48.6;57.6;;;;;;;0.4;62.3;98280;;;;
2022/01/08 16:49:53;;;;;;;48.6;57.6;;;;;;;0.5;61.3;98280;;;;
2022/01/08 16:59:53;;;;;;;41.4;49.4;;;;;;;0.6;61.1;98280;;;;
2022/01/08 17:10:55;;;;;;;41.4;49.4;;;;;;;0.5;61.3;98270;;;;
2022/01/08 17:20:54;;;;;;;41.4;49.4;;;;;;;0.5;61;98270;;;;
2022/01/08 17:31:53;;;;;;;61.4;75.6;;;;;;;0.6;61.2;98260;;;;
2022/01/08 17:42:54;;;;;;;61.4;75.6;;;;;;;0.6;61.6;98250;;;;
2022/01/08 17:52:53;;;;;;;61.4;75.6;;;;;;;0.5;61.8;98230;;;;
2022/01/08 18:02:53;;;;;;;48.6;59.3;;;;;;;0.4;62.1;98220;;;;
2022/01/08 18:13:53;;;;;;;48.6;59.3;;;;;;;0.3;63.7;98230;;;;
2022/01/08 18:23:54;;;;;;;48.6;59.3;;;;;;;0.4;64.5;98210;;;;
2022/01/08 18:34:53;;;;;;;61.8;71.9;;;;;;;0.3;64.6;98210;;;;
2022/01/08 18:44:53;;;;;;;61.8;71.9;;;;;;;0.4;63.9;98190;;;;
2022/01/08 18:55:54;;;;;;;61.8;71.9;;;;;;;0.3;64.5;98160;;;;
2022/01/08 19:06:54;;;;;;;46.9;55.5;;;;;;;0.3;64.6;98160;;;;
2022/01/08 19:16:53;;;;;;;46.9;55.5;;;;;;;0.4;64;98150;;;;
2022/01/08 19:27:54;;;;;;;46.9;55.5;;;;;;;0.3;64.4;98140;;;;
2022/01/08 19:38:54;;;;;;;93.7;108;;;;;;;0.3;64.5;98120;;;;
2022/01/08 19:48:54;;;;;;;93.7;108;;;;;;;0.1;64.4;98110;;;;
2022/01/08 19:58:54;;;;;;;83.1;94.9;;;;;;;-0.1;64.7;98110;;;;
2022/01/08 20:09:53;;;;;;;83.1;94.9;;;;;;;-0.2;66.1;98100;;;;
2022/01/08 20:19:54;;;;;;;83.1;94.9;;;;;;;-0.3;66.1;98090;;;;
2022/01/08 20:29:54;;;;;;;93;108.5;;;;;;;-0.4;66.1;98070;;;;
2022/01/08 20:39:54;;;;;;;93;108.5;;;;;;;-0.4;67.6;98070;;;;
2022/01/08 20:50:54;;;;;;;93;108.5;;;;;;;-0.4;67.2;98050;;;;
2022/01/08 21:00:54;;;;;;;86.8;105;;;;;;;-0.4;67.2;98030;;;;
2022/01/08 21:10:54;;;;;;;86.8;105;;;;;;;-0.4;67.6;98020;;;;
2022/01/08 21:21:54;;;;;;;86.8;105;;;;;;;-0.4;67.7;98010;;;;
2022/01/08 21:31:54;;;;;;;85.9;97.5;;;;;;;-0.3;67.9;97990;;;;
2022/01/08 21:42:54;;;;;;;85.9;97.5;;;;;;;-0.3;68.4;97970;;;;
2022/01/08 21:52:54;;;;;;;85.9;97.5;;;;;;;-0.3;68.1;97940;;;;
2022/01/08 22:02:54;;;;;;;82.6;99.7;;;;;;;-0.4;67.9;97930;;;;
2022/01/08 22:13:54;;;;;;;82.6;99.7;;;;;;;-0.5;67.7;97920;;;;
2022/01/08 22:23:54;;;;;;;82.6;99.7;;;;;;;-0.5;67.7;97920;;;;
2022/01/08 22:33:54;;;;;;;75.5;85.8;;;;;;;-0.5;68;97910;;;;
2022/01/08 22:44:54;;;;;;;75.5;85.8;;;;;;;-0.6;68.3;97910;;;;
2022/01/08 22:55:54;;;;;;;75.5;85.8;;;;;;;-0.6;68.1;97890;;;;
2022/01/08 23:05:56;;;;;;;78.1;89.2;;;;;;;-0.5;68.1;97870;;;;
2022/01/08 23:15:54;;;;;;;78.1;89.2;;;;;;;-0.5;68.6;97870;;;;
2022/01/08 23:25:54;;;;;;;78.1;89.2;;;;;;;-0.7;69.5;97840;;;;
2022/01/08 23:36:54;;;;;;;81;97.5;;;;;;;-0.6;68.4;97810;;;;
2022/01/08 23:46:56;;;;;;;81;97.5;;;;;;;-0.8;68.8;97820;;;;
2022/01/08 23:57:54;;;;;;;87.3;107.6;;;;;;;-1;70.1;97810;;;;
